sensor_id;sensor_type;location;lat;lon;timestamp;P1;durP1;ratioP1;P2;durP2;ratioP2
6290;SDS011;3178;48.730;8.990;2022-12-16T00:01:31;58.70;;;30.13;;
6290;SDS011;3178;48.730;8.990;2022-12-16T00:03:58;61.47;;;31.03;;
6290;SDS011;3178;48.730;8.990;2022-12-16T00:06:25;56.13;;;28.37;;
6290;SDS011;3178;48.730;8.990;2022-12-16T00:08:53;55.77;;;29.40;;
6290;SDS011;3178;48.730;8.990;2022-12-16T00:11:19;54.93;;;29.27;;
6290;SDS011;3178;48.730;8.990;2022-12-16T00:13:44;59.63;;;30.53;;
6290;SDS011;3178;48.730;8.990;2022-12-16T00:16:12;57.27;;;27.87;;
6290;SDS011;3178;48.730;8.990;2022-12-16T00:18:40;52.97;;;27.33;;
6290;SDS011;3178;48.730;8.990;2022-12-16T00:21:06;53.63;;;27.87;;
6290;SDS011;3178;48.730;8.990;2022-12-16T00:23:32;54.90;;;28.13;;
6290;SDS011;3178;48.730;8.990;2022-12-16T00:25:59;53.53;;;27.67;;
6290;SDS011;3178;48.730;8.990;2022-12-16T00:28:25;55.97;;;26.47;;
6290;SDS011;3178;48.730;8.990;2022-12-16T00:30:52;56.23;;;29.17;;
6290;SDS011;3178;48.730;8.990;2022-12-16T00:33:19;48.77;;;26.67;;
6290;SDS011;3178;48.730;8.990;2022-12-16T00:35:46;51.70;;;29.03;;
6290;SDS011;3178;48.730;8.990;2022-12-16T00:38:12;54.00;;;28.50;;
6290;SDS011;3178;48.730;8.990;2022-12-16T00:40:38;55.13;;;27.77;;
6290;SDS011;3178;48.730;8.990;2022-12-16T00:43:04;59.73;;;28.67;;
6290;SDS011;3178;48.730;8.990;2022-12-16T00:45:30;55.27;;;26.07;;
6290;SDS011;3178;48.730;8.990;2022-12-16T00:47:55;56.93;;;28.37;;
6290;SDS011;3178;48.730;8.990;2022-12-16T00:50:21;54.47;;;27.00;;
6290;SDS011;3178;48.730;8.990;2022-12-16T00:52:47;52.87;;;28.13;;
6290;SDS011;3178;48.730;8.990;2022-12-16T00:55:13;52.57;;;26.77;;
6290;SDS011;3178;48.730;8.990;2022-12-16T00:57:39;57.60;;;28.00;;
6290;SDS011;3178;48.730;8.990;2022-12-16T01:00:05;54.20;;;28.07;;
6290;SDS011;3178;48.730;8.990;2022-12-16T01:02:31;47.57;;;26.17;;
6290;SDS011;3178;48.730;8.990;2022-12-16T01:04:57;56.57;;;27.67;;
6290;SDS011;3178;48.730;8.990;2022-12-16T01:07:22;57.50;;;27.10;;
6290;SDS011;3178;48.730;8.990;2022-12-16T01:09:48;50.47;;;26.30;;
6290;SDS011;3178;48.730;8.990;2022-12-16T01:12:14;51.43;;;26.60;;
6290;SDS011;3178;48.730;8.990;2022-12-16T01:14:39;56.57;;;28.57;;
6290;SDS011;3178;48.730;8.990;2022-12-16T01:17:05;53.80;;;27.07;;
6290;SDS011;3178;48.730;8.990;2022-12-16T01:19:30;58.40;;;26.60;;
6290;SDS011;3178;48.730;8.990;2022-12-16T01:21:56;45.50;;;26.07;;
6290;SDS011;3178;48.730;8.990;2022-12-16T01:24:21;52.97;;;26.40;;
6290;SDS011;3178;48.730;8.990;2022-12-16T01:26:47;50.07;;;27.77;;
6290;SDS011;3178;48.730;8.990;2022-12-16T01:29:13;44.47;;;26.63;;
6290;SDS011;3178;48.730;8.990;2022-12-16T01:31:38;54.10;;;25.77;;
6290;SDS011;3178;48.730;8.990;2022-12-16T01:34:04;52.20;;;26.93;;
6290;SDS011;3178;48.730;8.990;2022-12-16T01:36:29;45.90;;;24.47;;
6290;SDS011;3178;48.730;8.990;2022-12-16T01:38:55;47.90;;;26.90;;
6290;SDS011;3178;48.730;8.990;2022-12-16T01:41:20;53.03;;;25.67;;
6290;SDS011;3178;48.730;8.990;2022-12-16T01:43:47;47.73;;;26.17;;
6290;SDS011;3178;48.730;8.990;2022-12-16T01:51:29;51.10;;;26.23;;
6290;SDS011;3178;48.730;8.990;2022-12-16T01:54:00;47.50;;;26.97;;
6290;SDS011;3178;48.730;8.990;2022-12-16T01:56:29;64.23;;;33.77;;
6290;SDS011;3178;48.730;8.990;2022-12-16T01:58:56;51.60;;;27.53;;
6290;SDS011;3178;48.730;8.990;2022-12-16T02:01:23;54.77;;;27.37;;
6290;SDS011;3178;48.730;8.990;2022-12-16T02:03:49;48.73;;;26.70;;
6290;SDS011;3178;48.730;8.990;2022-12-16T02:06:18;51.53;;;26.00;;
6290;SDS011;3178;48.730;8.990;2022-12-16T02:08:43;50.10;;;25.27;;
6290;SDS011;3178;48.730;8.990;2022-12-16T02:16:47;47.00;;;26.20;;
6290;SDS011;3178;48.730;8.990;2022-12-16T02:19:25;53.83;;;25.03;;
6290;SDS011;3178;48.730;8.990;2022-12-16T02:35:40;46.03;;;25.07;;
6290;SDS011;3178;48.730;8.990;2022-12-16T02:38:20;47.87;;;24.93;;
6290;SDS011;3178;48.730;8.990;2022-12-16T02:41:20;43.67;;;23.80;;
6290;SDS011;3178;48.730;8.990;2022-12-16T02:43:58;41.40;;;22.10;;
6290;SDS011;3178;48.730;8.990;2022-12-16T02:46:28;43.03;;;24.23;;
6290;SDS011;3178;48.730;8.990;2022-12-16T02:49:06;40.50;;;21.37;;
6290;SDS011;3178;48.730;8.990;2022-12-16T02:51:52;48.80;;;25.00;;
6290;SDS011;3178;48.730;8.990;2022-12-16T02:54:18;52.80;;;24.07;;
6290;SDS011;3178;48.730;8.990;2022-12-16T03:02:40;46.40;;;24.43;;
6290;SDS011;3178;48.730;8.990;2022-12-16T03:05:22;48.63;;;25.10;;
6290;SDS011;3178;48.730;8.990;2022-12-16T03:07:52;44.37;;;22.97;;
6290;SDS011;3178;48.730;8.990;2022-12-16T03:10:23;44.93;;;26.17;;
6290;SDS011;3178;48.730;8.990;2022-12-16T03:12:52;48.27;;;25.27;;
6290;SDS011;3178;48.730;8.990;2022-12-16T03:15:20;45.97;;;22.90;;
6290;SDS011;3178;48.730;8.990;2022-12-16T03:17:49;44.73;;;23.07;;
6290;SDS011;3178;48.730;8.990;2022-12-16T03:20:25;47.33;;;23.53;;
6290;SDS011;3178;48.730;8.990;2022-12-16T03:22:51;48.20;;;26.67;;
6290;SDS011;3178;48.730;8.990;2022-12-16T03:25:19;46.93;;;24.77;;
6290;SDS011;3178;48.730;8.990;2022-12-16T03:28:04;43.30;;;23.50;;
6290;SDS011;3178;48.730;8.990;2022-12-16T03:30:41;46.93;;;24.00;;
6290;SDS011;3178;48.730;8.990;2022-12-16T03:33:18;45.57;;;23.03;;
6290;SDS011;3178;48.730;8.990;2022-12-16T03:35:50;47.97;;;25.37;;
6290;SDS011;3178;48.730;8.990;2022-12-16T03:38:37;42.90;;;22.70;;
6290;SDS011;3178;48.730;8.990;2022-12-16T03:41:05;47.53;;;23.77;;
6290;SDS011;3178;48.730;8.990;2022-12-16T03:43:31;45.30;;;22.03;;
6290;SDS011;3178;48.730;8.990;2022-12-16T03:45:59;45.93;;;23.80;;
6290;SDS011;3178;48.730;8.990;2022-12-16T03:48:28;43.83;;;21.87;;
6290;SDS011;3178;48.730;8.990;2022-12-16T03:50:54;39.70;;;22.83;;
6290;SDS011;3178;48.730;8.990;2022-12-16T03:53:20;41.37;;;21.93;;
6290;SDS011;3178;48.730;8.990;2022-12-16T03:55:50;37.03;;;20.67;;
6290;SDS011;3178;48.730;8.990;2022-12-16T03:58:15;35.87;;;20.90;;
6290;SDS011;3178;48.730;8.990;2022-12-16T04:00:41;39.27;;;21.27;;
6290;SDS011;3178;48.730;8.990;2022-12-16T04:03:06;35.53;;;20.77;;
6290;SDS011;3178;48.730;8.990;2022-12-16T04:05:32;38.60;;;21.13;;
6290;SDS011;3178;48.730;8.990;2022-12-16T04:07:57;37.10;;;22.00;;
6290;SDS011;3178;48.730;8.990;2022-12-16T04:10:23;39.40;;;20.67;;
6290;SDS011;3178;48.730;8.990;2022-12-16T04:13:08;41.27;;;20.07;;
6290;SDS011;3178;48.730;8.990;2022-12-16T04:15:52;34.23;;;17.60;;
6290;SDS011;3178;48.730;8.990;2022-12-16T04:18:36;34.13;;;17.70;;
6290;SDS011;3178;48.730;8.990;2022-12-16T04:21:23;32.90;;;17.60;;
6290;SDS011;3178;48.730;8.990;2022-12-16T04:24:09;35.53;;;18.27;;
6290;SDS011;3178;48.730;8.990;2022-12-16T04:26:44;36.13;;;20.77;;
6290;SDS011;3178;48.730;8.990;2022-12-16T04:29:32;34.33;;;18.97;;
6290;SDS011;3178;48.730;8.990;2022-12-16T04:31:58;32.90;;;17.63;;
6290;SDS011;3178;48.730;8.990;2022-12-16T04:34:24;38.57;;;19.37;;
6290;SDS011;3178;48.730;8.990;2022-12-16T04:36:54;35.67;;;18.43;;
6290;SDS011;3178;48.730;8.990;2022-12-16T04:39:40;34.03;;;17.93;;
6290;SDS011;3178;48.730;8.990;2022-12-16T04:42:24;38.33;;;19.80;;
6290;SDS011;3178;48.730;8.990;2022-12-16T04:45:09;39.17;;;19.67;;
6290;SDS011;3178;48.730;8.990;2022-12-16T04:47:53;37.80;;;18.90;;
6290;SDS011;3178;48.730;8.990;2022-12-16T04:50:48;30.80;;;18.53;;
6290;SDS011;3178;48.730;8.990;2022-12-16T04:53:32;48.83;;;21.27;;
6290;SDS011;3178;48.730;8.990;2022-12-16T04:56:16;35.23;;;18.93;;
6290;SDS011;3178;48.730;8.990;2022-12-16T04:59:00;35.70;;;19.43;;
6290;SDS011;3178;48.730;8.990;2022-12-16T05:01:44;41.20;;;19.53;;
6290;SDS011;3178;48.730;8.990;2022-12-16T05:04:28;37.20;;;20.70;;
6290;SDS011;3178;48.730;8.990;2022-12-16T05:07:12;40.33;;;19.27;;
6290;SDS011;3178;48.730;8.990;2022-12-16T05:09:56;36.07;;;18.80;;
6290;SDS011;3178;48.730;8.990;2022-12-16T05:12:40;46.03;;;18.53;;
6290;SDS011;3178;48.730;8.990;2022-12-16T05:15:24;30.23;;;17.40;;
6290;SDS011;3178;48.730;8.990;2022-12-16T05:18:09;33.53;;;17.90;;
6290;SDS011;3178;48.730;8.990;2022-12-16T05:20:56;32.57;;;18.50;;
6290;SDS011;3178;48.730;8.990;2022-12-16T05:23:40;34.17;;;17.20;;
6290;SDS011;3178;48.730;8.990;2022-12-16T05:26:24;28.30;;;15.83;;
6290;SDS011;3178;48.730;8.990;2022-12-16T05:29:08;28.50;;;15.80;;
6290;SDS011;3178;48.730;8.990;2022-12-16T05:31:52;29.17;;;15.57;;
6290;SDS011;3178;48.730;8.990;2022-12-16T05:34:36;35.47;;;16.43;;
6290;SDS011;3178;48.730;8.990;2022-12-16T05:37:20;29.33;;;15.53;;
6290;SDS011;3178;48.730;8.990;2022-12-16T05:40:04;31.90;;;16.00;;
6290;SDS011;3178;48.730;8.990;2022-12-16T05:42:50;30.23;;;15.70;;
6290;SDS011;3178;48.730;8.990;2022-12-16T05:45:34;33.70;;;16.40;;
6290;SDS011;3178;48.730;8.990;2022-12-16T05:48:18;29.37;;;14.57;;
6290;SDS011;3178;48.730;8.990;2022-12-16T05:51:02;29.93;;;15.40;;
6290;SDS011;3178;48.730;8.990;2022-12-16T05:53:46;33.97;;;15.47;;
6290;SDS011;3178;48.730;8.990;2022-12-16T05:56:30;30.40;;;17.00;;
6290;SDS011;3178;48.730;8.990;2022-12-16T05:59:14;29.30;;;15.63;;
6290;SDS011;3178;48.730;8.990;2022-12-16T06:01:58;28.43;;;14.73;;
6290;SDS011;3178;48.730;8.990;2022-12-16T06:04:42;36.80;;;16.40;;
6290;SDS011;3178;48.730;8.990;2022-12-16T06:07:26;31.50;;;16.40;;
6290;SDS011;3178;48.730;8.990;2022-12-16T06:10:10;28.80;;;14.10;;
6290;SDS011;3178;48.730;8.990;2022-12-16T06:12:54;33.53;;;15.53;;
6290;SDS011;3178;48.730;8.990;2022-12-16T06:15:38;33.30;;;15.70;;
6290;SDS011;3178;48.730;8.990;2022-12-16T06:18:22;26.40;;;14.50;;
6290;SDS011;3178;48.730;8.990;2022-12-16T06:21:06;24.77;;;13.77;;
6290;SDS011;3178;48.730;8.990;2022-12-16T06:23:50;29.03;;;14.87;;
6290;SDS011;3178;48.730;8.990;2022-12-16T06:26:34;25.90;;;14.17;;
6290;SDS011;3178;48.730;8.990;2022-12-16T06:29:18;30.80;;;14.47;;
6290;SDS011;3178;48.730;8.990;2022-12-16T06:32:02;26.47;;;14.70;;
6290;SDS011;3178;48.730;8.990;2022-12-16T06:34:46;27.87;;;14.00;;
6290;SDS011;3178;48.730;8.990;2022-12-16T06:37:30;29.60;;;16.53;;
6290;SDS011;3178;48.730;8.990;2022-12-16T06:40:14;28.50;;;14.53;;
6290;SDS011;3178;48.730;8.990;2022-12-16T06:42:58;29.27;;;15.07;;
6290;SDS011;3178;48.730;8.990;2022-12-16T06:45:43;27.47;;;14.97;;
6290;SDS011;3178;48.730;8.990;2022-12-16T06:48:27;25.27;;;14.43;;
6290;SDS011;3178;48.730;8.990;2022-12-16T06:51:11;28.83;;;14.73;;
6290;SDS011;3178;48.730;8.990;2022-12-16T06:53:55;30.47;;;14.53;;
6290;SDS011;3178;48.730;8.990;2022-12-16T06:56:39;28.27;;;15.20;;
6290;SDS011;3178;48.730;8.990;2022-12-16T06:59:23;32.63;;;15.10;;
6290;SDS011;3178;48.730;8.990;2022-12-16T07:02:08;30.00;;;16.40;;
6290;SDS011;3178;48.730;8.990;2022-12-16T07:04:54;35.90;;;19.17;;
6290;SDS011;3178;48.730;8.990;2022-12-16T07:07:38;42.80;;;21.93;;
6290;SDS011;3178;48.730;8.990;2022-12-16T07:10:22;57.70;;;26.13;;
6290;SDS011;3178;48.730;8.990;2022-12-16T07:13:06;27.20;;;15.30;;
6290;SDS011;3178;48.730;8.990;2022-12-16T07:15:50;38.70;;;18.43;;
6290;SDS011;3178;48.730;8.990;2022-12-16T07:18:34;33.30;;;18.00;;
6290;SDS011;3178;48.730;8.990;2022-12-16T07:21:18;27.13;;;15.80;;
6290;SDS011;3178;48.730;8.990;2022-12-16T07:24:02;27.50;;;14.90;;
6290;SDS011;3178;48.730;8.990;2022-12-16T07:26:46;29.37;;;15.17;;
6290;SDS011;3178;48.730;8.990;2022-12-16T07:29:35;27.30;;;15.23;;
6290;SDS011;3178;48.730;8.990;2022-12-16T07:32:19;25.60;;;14.70;;
6290;SDS011;3178;48.730;8.990;2022-12-16T07:35:03;38.63;;;17.10;;
6290;SDS011;3178;48.730;8.990;2022-12-16T07:37:47;31.60;;;18.10;;
6290;SDS011;3178;48.730;8.990;2022-12-16T07:40:31;32.60;;;15.80;;
6290;SDS011;3178;48.730;8.990;2022-12-16T07:43:15;27.40;;;16.23;;
6290;SDS011;3178;48.730;8.990;2022-12-16T07:45:59;29.13;;;14.70;;
6290;SDS011;3178;48.730;8.990;2022-12-16T07:48:43;25.67;;;13.17;;
6290;SDS011;3178;48.730;8.990;2022-12-16T07:51:27;27.50;;;15.20;;
6290;SDS011;3178;48.730;8.990;2022-12-16T07:54:11;28.90;;;15.30;;
6290;SDS011;3178;48.730;8.990;2022-12-16T07:56:55;26.17;;;14.77;;
6290;SDS011;3178;48.730;8.990;2022-12-16T07:59:39;32.00;;;15.67;;
6290;SDS011;3178;48.730;8.990;2022-12-16T08:02:23;32.30;;;16.20;;
6290;SDS011;3178;48.730;8.990;2022-12-16T08:05:15;27.20;;;14.70;;
6290;SDS011;3178;48.730;8.990;2022-12-16T08:07:59;26.17;;;14.40;;
6290;SDS011;3178;48.730;8.990;2022-12-16T08:10:43;28.27;;;14.67;;
6290;SDS011;3178;48.730;8.990;2022-12-16T08:13:28;27.40;;;14.23;;
6290;SDS011;3178;48.730;8.990;2022-12-16T08:16:11;27.10;;;14.40;;
6290;SDS011;3178;48.730;8.990;2022-12-16T08:18:56;31.80;;;15.53;;
6290;SDS011;3178;48.730;8.990;2022-12-16T08:21:40;26.40;;;14.00;;
6290;SDS011;3178;48.730;8.990;2022-12-16T08:24:24;25.80;;;13.17;;
6290;SDS011;3178;48.730;8.990;2022-12-16T08:27:08;24.13;;;13.33;;
6290;SDS011;3178;48.730;8.990;2022-12-16T08:29:52;24.00;;;12.97;;
6290;SDS011;3178;48.730;8.990;2022-12-16T08:32:36;26.07;;;14.83;;
6290;SDS011;3178;48.730;8.990;2022-12-16T08:35:20;25.10;;;13.40;;
6290;SDS011;3178;48.730;8.990;2022-12-16T08:38:04;27.70;;;15.20;;
6290;SDS011;3178;48.730;8.990;2022-12-16T08:40:48;37.80;;;16.40;;
6290;SDS011;3178;48.730;8.990;2022-12-16T08:43:32;29.13;;;16.00;;
6290;SDS011;3178;48.730;8.990;2022-12-16T08:46:18;27.80;;;14.57;;
6290;SDS011;3178;48.730;8.990;2022-12-16T08:49:03;35.20;;;15.40;;
6290;SDS011;3178;48.730;8.990;2022-12-16T08:51:47;24.40;;;14.77;;
6290;SDS011;3178;48.730;8.990;2022-12-16T08:54:31;28.67;;;15.57;;
6290;SDS011;3178;48.730;8.990;2022-12-16T08:57:15;35.13;;;15.13;;
6290;SDS011;3178;48.730;8.990;2022-12-16T08:59:59;37.87;;;14.67;;
6290;SDS011;3178;48.730;8.990;2022-12-16T09:02:54;32.40;;;16.10;;
6290;SDS011;3178;48.730;8.990;2022-12-16T09:05:42;26.23;;;13.00;;
6290;SDS011;3178;48.730;8.990;2022-12-16T09:08:27;26.30;;;13.10;;
6290;SDS011;3178;48.730;8.990;2022-12-16T09:11:11;26.50;;;14.40;;
6290;SDS011;3178;48.730;8.990;2022-12-16T09:13:55;25.33;;;14.20;;
6290;SDS011;3178;48.730;8.990;2022-12-16T09:16:39;20.87;;;12.17;;
6290;SDS011;3178;48.730;8.990;2022-12-16T09:19:23;24.33;;;13.23;;
6290;SDS011;3178;48.730;8.990;2022-12-16T09:22:07;24.43;;;12.20;;
6290;SDS011;3178;48.730;8.990;2022-12-16T09:24:51;28.77;;;13.10;;
6290;SDS011;3178;48.730;8.990;2022-12-16T09:27:35;16.27;;;9.80;;
6290;SDS011;3178;48.730;8.990;2022-12-16T09:30:19;20.77;;;11.63;;
6290;SDS011;3178;48.730;8.990;2022-12-16T09:33:03;24.70;;;10.83;;
6290;SDS011;3178;48.730;8.990;2022-12-16T09:35:47;17.33;;;9.90;;
6290;SDS011;3178;48.730;8.990;2022-12-16T09:38:31;22.13;;;10.80;;
6290;SDS011;3178;48.730;8.990;2022-12-16T09:41:22;25.50;;;11.00;;
6290;SDS011;3178;48.730;8.990;2022-12-16T09:50:20;15.50;;;9.53;;
6290;SDS011;3178;48.730;8.990;2022-12-16T09:53:13;19.60;;;9.47;;
6290;SDS011;3178;48.730;8.990;2022-12-16T09:56:01;26.07;;;9.23;;
6290;SDS011;3178;48.730;8.990;2022-12-16T09:58:58;19.90;;;10.07;;
6290;SDS011;3178;48.730;8.990;2022-12-16T10:01:45;19.40;;;10.40;;
6290;SDS011;3178;48.730;8.990;2022-12-16T10:04:29;24.00;;;9.93;;
6290;SDS011;3178;48.730;8.990;2022-12-16T10:07:23;21.80;;;10.70;;
6290;SDS011;3178;48.730;8.990;2022-12-16T10:10:22;15.73;;;9.50;;
6290;SDS011;3178;48.730;8.990;2022-12-16T10:16:36;16.13;;;9.47;;
6290;SDS011;3178;48.730;8.990;2022-12-16T10:19:40;21.43;;;10.27;;
6290;SDS011;3178;48.730;8.990;2022-12-16T10:22:55;24.70;;;10.37;;
6290;SDS011;3178;48.730;8.990;2022-12-16T10:25:48;24.47;;;10.00;;
6290;SDS011;3178;48.730;8.990;2022-12-16T10:28:46;15.83;;;9.63;;
6290;SDS011;3178;48.730;8.990;2022-12-16T10:31:32;17.53;;;9.07;;
6290;SDS011;3178;48.730;8.990;2022-12-16T10:34:20;18.73;;;9.40;;
6290;SDS011;3178;48.730;8.990;2022-12-16T10:37:15;18.00;;;9.20;;
6290;SDS011;3178;48.730;8.990;2022-12-16T10:40:02;14.57;;;8.13;;
6290;SDS011;3178;48.730;8.990;2022-12-16T10:42:50;16.33;;;9.33;;
6290;SDS011;3178;48.730;8.990;2022-12-16T10:45:45;16.70;;;9.70;;
6290;SDS011;3178;48.730;8.990;2022-12-16T10:48:32;16.50;;;9.90;;
6290;SDS011;3178;48.730;8.990;2022-12-16T10:51:17;23.57;;;9.30;;
6290;SDS011;3178;48.730;8.990;2022-12-16T10:57:14;13.83;;;8.50;;
6290;SDS011;3178;48.730;8.990;2022-12-16T11:00:12;14.70;;;8.87;;
6290;SDS011;3178;48.730;8.990;2022-12-16T11:03:20;14.30;;;7.93;;
6290;SDS011;3178;48.730;8.990;2022-12-16T11:06:06;13.70;;;8.17;;
6290;SDS011;3178;48.730;8.990;2022-12-16T11:08:51;15.43;;;8.27;;
6290;SDS011;3178;48.730;8.990;2022-12-16T11:11:35;13.63;;;8.00;;
6290;SDS011;3178;48.730;8.990;2022-12-16T11:14:24;15.00;;;7.80;;
6290;SDS011;3178;48.730;8.990;2022-12-16T11:17:19;17.40;;;9.60;;
6290;SDS011;3178;48.730;8.990;2022-12-16T11:23:20;15.00;;;9.37;;
6290;SDS011;3178;48.730;8.990;2022-12-16T11:26:12;14.67;;;8.00;;
6290;SDS011;3178;48.730;8.990;2022-12-16T11:29:01;13.70;;;8.20;;
6290;SDS011;3178;48.730;8.990;2022-12-16T11:31:48;13.07;;;7.67;;
6290;SDS011;3178;48.730;8.990;2022-12-16T11:34:37;14.40;;;7.40;;
6290;SDS011;3178;48.730;8.990;2022-12-16T11:37:22;16.60;;;7.67;;
6290;SDS011;3178;48.730;8.990;2022-12-16T11:40:11;14.97;;;8.60;;
6290;SDS011;3178;48.730;8.990;2022-12-16T11:42:59;17.70;;;9.00;;
6290;SDS011;3178;48.730;8.990;2022-12-16T11:45:46;16.67;;;8.10;;
6290;SDS011;3178;48.730;8.990;2022-12-16T11:48:41;18.90;;;8.27;;
6290;SDS011;3178;48.730;8.990;2022-12-16T11:51:31;17.53;;;10.20;;
6290;SDS011;3178;48.730;8.990;2022-12-16T11:54:20;19.70;;;9.53;;
6290;SDS011;3178;48.730;8.990;2022-12-16T12:00:25;15.60;;;8.73;;
6290;SDS011;3178;48.730;8.990;2022-12-16T12:03:11;17.50;;;9.40;;
6290;SDS011;3178;48.730;8.990;2022-12-16T12:09:08;17.40;;;9.20;;
6290;SDS011;3178;48.730;8.990;2022-12-16T12:15:03;16.53;;;8.97;;
6290;SDS011;3178;48.730;8.990;2022-12-16T12:18:14;18.03;;;9.83;;
6290;SDS011;3178;48.730;8.990;2022-12-16T12:21:12;22.80;;;10.00;;
6290;SDS011;3178;48.730;8.990;2022-12-16T12:24:26;19.30;;;10.20;;
6290;SDS011;3178;48.730;8.990;2022-12-16T12:30:30;14.23;;;8.40;;
6290;SDS011;3178;48.730;8.990;2022-12-16T12:33:37;17.40;;;10.60;;
6290;SDS011;3178;48.730;8.990;2022-12-16T12:36:41;18.53;;;9.30;;
6290;SDS011;3178;48.730;8.990;2022-12-16T12:42:35;19.40;;;10.30;;
6290;SDS011;3178;48.730;8.990;2022-12-16T12:48:43;24.67;;;9.90;;
6290;SDS011;3178;48.730;8.990;2022-12-16T12:57:57;22.97;;;11.57;;
6290;SDS011;3178;48.730;8.990;2022-12-16T13:00:44;21.67;;;9.67;;
6290;SDS011;3178;48.730;8.990;2022-12-16T13:03:43;20.43;;;11.27;;
6290;SDS011;3178;48.730;8.990;2022-12-16T13:06:33;17.00;;;10.17;;
6290;SDS011;3178;48.730;8.990;2022-12-16T13:18:11;25.70;;;12.70;;
6290;SDS011;3178;48.730;8.990;2022-12-16T13:21:02;21.93;;;11.10;;
6290;SDS011;3178;48.730;8.990;2022-12-16T13:23:47;18.63;;;10.83;;
6290;SDS011;3178;48.730;8.990;2022-12-16T13:26:32;19.93;;;9.97;;
6290;SDS011;3178;48.730;8.990;2022-12-16T13:29:28;26.87;;;11.17;;
6290;SDS011;3178;48.730;8.990;2022-12-16T13:32:22;18.40;;;9.93;;
6290;SDS011;3178;48.730;8.990;2022-12-16T13:41:02;18.10;;;9.77;;
6290;SDS011;3178;48.730;8.990;2022-12-16T13:44:09;15.63;;;9.60;;
6290;SDS011;3178;48.730;8.990;2022-12-16T13:46:54;15.07;;;9.43;;
6290;SDS011;3178;48.730;8.990;2022-12-16T13:49:44;17.80;;;10.53;;
6290;SDS011;3178;48.730;8.990;2022-12-16T14:01:33;14.70;;;8.23;;
6290;SDS011;3178;48.730;8.990;2022-12-16T14:04:25;11.33;;;6.97;;
6290;SDS011;3178;48.730;8.990;2022-12-16T14:07:12;12.10;;;7.87;;
6290;SDS011;3178;48.730;8.990;2022-12-16T14:09:58;17.33;;;8.63;;
6290;SDS011;3178;48.730;8.990;2022-12-16T14:15:50;13.20;;;7.80;;
6290;SDS011;3178;48.730;8.990;2022-12-16T14:18:46;17.30;;;9.20;;
6290;SDS011;3178;48.730;8.990;2022-12-16T14:21:49;13.00;;;8.60;;
6290;SDS011;3178;48.730;8.990;2022-12-16T14:24:39;22.03;;;8.30;;
6290;SDS011;3178;48.730;8.990;2022-12-16T14:27:23;14.03;;;6.80;;
6290;SDS011;3178;48.730;8.990;2022-12-16T14:30:15;11.73;;;7.43;;
6290;SDS011;3178;48.730;8.990;2022-12-16T14:33:24;12.90;;;7.10;;
6290;SDS011;3178;48.730;8.990;2022-12-16T14:36:23;14.40;;;7.97;;
6290;SDS011;3178;48.730;8.990;2022-12-16T14:39:13;12.77;;;7.17;;
6290;SDS011;3178;48.730;8.990;2022-12-16T14:42:24;10.93;;;6.90;;
6290;SDS011;3178;48.730;8.990;2022-12-16T14:57:03;14.57;;;7.17;;
6290;SDS011;3178;48.730;8.990;2022-12-16T14:59:58;15.90;;;7.03;;
6290;SDS011;3178;48.730;8.990;2022-12-16T15:02:43;16.20;;;7.77;;
6290;SDS011;3178;48.730;8.990;2022-12-16T15:05:30;14.00;;;7.70;;
6290;SDS011;3178;48.730;8.990;2022-12-16T15:08:16;16.53;;;8.60;;
6290;SDS011;3178;48.730;8.990;2022-12-16T15:11:02;15.90;;;7.50;;
6290;SDS011;3178;48.730;8.990;2022-12-16T15:13:49;14.80;;;8.17;;
6290;SDS011;3178;48.730;8.990;2022-12-16T15:16:38;15.97;;;8.70;;
6290;SDS011;3178;48.730;8.990;2022-12-16T15:19:22;13.20;;;7.70;;
6290;SDS011;3178;48.730;8.990;2022-12-16T15:22:13;14.03;;;7.87;;
6290;SDS011;3178;48.730;8.990;2022-12-16T15:24:59;11.40;;;7.27;;
6290;SDS011;3178;48.730;8.990;2022-12-16T15:27:51;11.97;;;7.53;;
6290;SDS011;3178;48.730;8.990;2022-12-16T15:30:38;14.97;;;8.00;;
6290;SDS011;3178;48.730;8.990;2022-12-16T15:33:27;14.77;;;7.30;;
6290;SDS011;3178;48.730;8.990;2022-12-16T15:36:20;16.50;;;7.80;;
6290;SDS011;3178;48.730;8.990;2022-12-16T15:42:05;16.63;;;9.60;;
6290;SDS011;3178;48.730;8.990;2022-12-16T15:45:29;22.17;;;9.37;;
6290;SDS011;3178;48.730;8.990;2022-12-16T15:54:18;21.63;;;10.88;;
6290;SDS011;3178;48.730;8.990;2022-12-16T15:57:23;18.07;;;8.70;;
6290;SDS011;3178;48.730;8.990;2022-12-16T16:00:36;15.27;;;8.00;;
6290;SDS011;3178;48.730;8.990;2022-12-16T16:09:14;20.03;;;9.80;;
6290;SDS011;3178;48.730;8.990;2022-12-16T16:12:06;24.40;;;8.87;;
6290;SDS011;3178;48.730;8.990;2022-12-16T16:14:52;16.67;;;9.37;;
6290;SDS011;3178;48.730;8.990;2022-12-16T16:17:36;17.13;;;9.63;;
6290;SDS011;3178;48.730;8.990;2022-12-16T16:20:20;16.50;;;10.00;;
6290;SDS011;3178;48.730;8.990;2022-12-16T16:23:04;18.10;;;10.47;;
6290;SDS011;3178;48.730;8.990;2022-12-16T16:25:48;24.17;;;10.27;;
6290;SDS011;3178;48.730;8.990;2022-12-16T16:28:32;17.67;;;9.83;;
6290;SDS011;3178;48.730;8.990;2022-12-16T16:31:16;18.10;;;10.27;;
6290;SDS011;3178;48.730;8.990;2022-12-16T16:34:01;27.03;;;11.03;;
6290;SDS011;3178;48.730;8.990;2022-12-16T16:36:47;20.43;;;11.47;;
6290;SDS011;3178;48.730;8.990;2022-12-16T16:39:36;19.13;;;10.53;;
6290;SDS011;3178;48.730;8.990;2022-12-16T16:42:20;35.63;;;11.70;;
6290;SDS011;3178;48.730;8.990;2022-12-16T16:45:04;23.93;;;9.80;;
6290;SDS011;3178;48.730;8.990;2022-12-16T16:47:48;20.50;;;10.27;;
6290;SDS011;3178;48.730;8.990;2022-12-16T16:50:32;23.43;;;10.80;;
6290;SDS011;3178;48.730;8.990;2022-12-16T16:53:16;25.63;;;10.73;;
6290;SDS011;3178;48.730;8.990;2022-12-16T16:56:02;23.50;;;11.50;;
6290;SDS011;3178;48.730;8.990;2022-12-16T16:58:47;20.90;;;11.37;;
6290;SDS011;3178;48.730;8.990;2022-12-16T17:01:31;21.83;;;10.60;;
6290;SDS011;3178;48.730;8.990;2022-12-16T17:04:15;23.87;;;11.10;;
6290;SDS011;3178;48.730;8.990;2022-12-16T17:06:59;22.63;;;11.30;;
6290;SDS011;3178;48.730;8.990;2022-12-16T17:09:43;23.20;;;11.73;;
6290;SDS011;3178;48.730;8.990;2022-12-16T17:12:28;18.67;;;11.17;;
6290;SDS011;3178;48.730;8.990;2022-12-16T17:15:23;17.90;;;11.20;;
6290;SDS011;3178;48.730;8.990;2022-12-16T17:18:12;25.53;;;11.67;;
6290;SDS011;3178;48.730;8.990;2022-12-16T17:20:56;27.63;;;13.50;;
6290;SDS011;3178;48.730;8.990;2022-12-16T17:23:40;25.83;;;12.03;;
6290;SDS011;3178;48.730;8.990;2022-12-16T17:26:25;28.37;;;13.20;;
6290;SDS011;3178;48.730;8.990;2022-12-16T17:29:20;26.90;;;13.53;;
6290;SDS011;3178;48.730;8.990;2022-12-16T17:32:05;25.03;;;13.40;;
6290;SDS011;3178;48.730;8.990;2022-12-16T17:34:50;25.53;;;12.60;;
6290;SDS011;3178;48.730;8.990;2022-12-16T17:37:34;24.67;;;12.67;;
6290;SDS011;3178;48.730;8.990;2022-12-16T17:40:18;19.23;;;11.33;;
6290;SDS011;3178;48.730;8.990;2022-12-16T17:43:02;26.07;;;12.63;;
6290;SDS011;3178;48.730;8.990;2022-12-16T17:45:57;19.30;;;10.60;;
6290;SDS011;3178;48.730;8.990;2022-12-16T17:48:49;20.27;;;12.37;;
6290;SDS011;3178;48.730;8.990;2022-12-16T17:51:34;24.90;;;11.23;;
6290;SDS011;3178;48.730;8.990;2022-12-16T17:54:18;22.60;;;10.83;;
6290;SDS011;3178;48.730;8.990;2022-12-16T17:57:02;20.57;;;11.40;;
6290;SDS011;3178;48.730;8.990;2022-12-16T17:59:46;24.13;;;11.40;;
6290;SDS011;3178;48.730;8.990;2022-12-16T18:02:30;27.50;;;12.07;;
6290;SDS011;3178;48.730;8.990;2022-12-16T18:05:14;24.80;;;11.90;;
6290;SDS011;3178;48.730;8.990;2022-12-16T18:07:58;22.40;;;11.77;;
6290;SDS011;3178;48.730;8.990;2022-12-16T18:10:42;18.97;;;10.87;;
6290;SDS011;3178;48.730;8.990;2022-12-16T18:13:26;21.77;;;11.50;;
6290;SDS011;3178;48.730;8.990;2022-12-16T18:16:10;24.00;;;12.27;;
6290;SDS011;3178;48.730;8.990;2022-12-16T18:18:54;22.43;;;12.00;;
6290;SDS011;3178;48.730;8.990;2022-12-16T18:21:38;30.40;;;13.10;;
6290;SDS011;3178;48.730;8.990;2022-12-16T18:24:23;22.80;;;11.90;;
6290;SDS011;3178;48.730;8.990;2022-12-16T18:27:06;19.23;;;11.30;;
6290;SDS011;3178;48.730;8.990;2022-12-16T18:30:02;31.33;;;13.13;;